createdAt,value
2022-11-12T00:00:54.369Z,65.91
2022-11-12T00:04:01.594Z,65.36
2022-11-12T00:07:08.572Z,64.99
2022-11-12T00:10:15.571Z,64.93
2022-11-12T00:13:29.484Z,63.42
2022-11-12T00:16:37.643Z,62.58
2022-11-12T00:19:37.832Z,62.41
2022-11-12T00:22:44.570Z,62.26
2022-11-12T00:25:52.596Z,63.09
2022-11-12T00:28:59.496Z,62.44
2022-11-12T00:32:00.021Z,62.17
2022-11-12T00:35:07.754Z,61.68
2022-11-12T00:38:09.854Z,61.39
2022-11-12T00:41:17.557Z,62.03
2022-11-12T00:44:17.847Z,62.10
2022-11-12T00:47:25.575Z,63.58
2022-11-12T00:50:25.873Z,63.33
2022-11-12T00:53:32.512Z,62.90
2022-11-12T00:56:36.211Z,62.55
2022-11-12T00:59:43.531Z,62.33
2022-11-12T01:02:50.424Z,62.35
2022-11-12T01:05:57.480Z,62.59
2022-11-12T01:08:58.912Z,61.03
2022-11-12T01:12:06.472Z,61.50
2022-11-12T01:15:06.895Z,60.74
2022-11-12T01:18:13.628Z,60.64
2022-11-12T01:21:15.949Z,62.06
2022-11-12T01:24:23.468Z,62.25
2022-11-12T01:27:31.937Z,62.76
2022-11-12T01:30:31.741Z,63.53
2022-11-12T01:33:39.483Z,63.60
2022-11-12T01:36:41.825Z,63.58
2022-11-12T01:39:48.491Z,63.42
2022-11-12T01:42:58.393Z,63.25
2022-11-12T01:46:07.559Z,63.93
2022-11-12T01:49:20.549Z,64.02
2022-11-12T01:52:51.573Z,63.85
2022-11-12T01:56:00.546Z,63.53
2022-11-12T01:59:08.863Z,63.89
2022-11-12T02:02:16.552Z,64.85
2022-11-12T02:05:19.320Z,64.37
2022-11-12T02:08:27.722Z,64.77
2022-11-12T02:11:41.405Z,64.28
2022-11-12T02:14:49.552Z,64.16
2022-11-12T02:17:49.980Z,64.32
2022-11-12T02:21:06.571Z,64.83
2022-11-12T02:24:08.823Z,63.98
2022-11-12T02:27:17.565Z,63.33
2022-11-12T02:30:18.845Z,63.89
2022-11-12T02:33:26.781Z,62.77
2022-11-12T02:36:27.827Z,64.04
2022-11-12T02:39:35.488Z,62.18
2022-11-12T02:42:42.455Z,62.89
2022-11-12T02:45:42.876Z,61.88
2022-11-12T02:48:50.537Z,62.42
2022-11-12T02:51:57.570Z,60.88
2022-11-12T02:55:04.526Z,57.92
2022-11-12T02:58:11.543Z,60.59
2022-11-12T03:01:11.882Z,58.96
2022-11-12T03:04:19.833Z,60.28
2022-11-12T03:07:19.869Z,59.99
2022-11-12T03:10:27.547Z,58.40
2022-11-12T03:13:40.543Z,58.51
2022-11-12T03:16:47.552Z,56.77
2022-11-12T03:19:48.838Z,56.53
2022-11-12T03:23:14.475Z,55.81
2022-11-12T03:26:14.807Z,54.94
2022-11-12T03:29:21.523Z,54.49
2022-11-12T03:32:21.822Z,53.23
2022-11-12T03:35:22.533Z,53.09
2022-11-12T03:38:22.818Z,51.06
2022-11-12T03:41:29.521Z,51.34
2022-11-12T03:44:36.550Z,49.76
2022-11-12T03:47:36.925Z,47.50
2022-11-12T03:50:43.520Z,47.23
2022-11-12T03:53:50.515Z,44.28
2022-11-12T03:56:51.779Z,44.74
2022-11-12T03:59:58.559Z,42.98
2022-11-12T04:03:00.726Z,45.04
2022-11-12T04:06:25.531Z,41.89
2022-11-12T04:09:25.718Z,40.54
2022-11-12T04:12:51.545Z,42.09
2022-11-12T04:16:18.553Z,40.98
2022-11-12T04:19:39.130Z,38.13
2022-11-12T04:22:45.560Z,39.74
2022-11-12T04:26:06.174Z,37.38
2022-11-12T04:29:37.260Z,34.80
2022-11-12T04:32:39.827Z,35.77
2022-11-12T04:35:47.467Z,34.30
2022-11-12T04:38:48.822Z,33.63
2022-11-12T04:42:13.460Z,35.88
2022-11-12T04:45:18.790Z,37.37
2022-11-12T04:48:27.840Z,38.52
2022-11-12T04:51:46.146Z,36.29
2022-11-12T04:54:52.467Z,36.70
2022-11-12T04:58:01.045Z,35.39
2022-11-12T05:01:03.147Z,35.03
2022-11-12T05:04:10.537Z,36.90
2022-11-12T05:07:11.505Z,38.05
2022-11-12T05:10:19.542Z,38.38
2022-11-12T05:13:29.290Z,36.14
2022-11-12T05:16:30.525Z,34.71
2022-11-12T05:19:37.617Z,36.80
2022-11-12T05:22:47.874Z,38.17
2022-11-12T05:26:01.541Z,35.81
2022-11-12T05:29:07.587Z,33.49
2022-11-12T05:32:16.525Z,34.03
2022-11-12T05:35:23.522Z,35.69
2022-11-12T05:38:25.145Z,33.62
2022-11-12T05:41:57.970Z,35.16
2022-11-12T05:45:01.449Z,36.48
2022-11-12T05:48:03.264Z,35.34
2022-11-12T05:51:13.642Z,34.10
2022-11-12T05:54:21.529Z,34.06
2022-11-12T05:57:28.441Z,34.36
2022-11-12T06:00:35.522Z,31.71
2022-11-12T06:03:36.168Z,33.06
2022-11-12T06:06:44.622Z,33.55
2022-11-12T06:09:45.663Z,33.93
2022-11-12T06:12:52.531Z,31.26
2022-11-12T06:16:02.531Z,32.81
2022-11-12T06:19:02.858Z,35.39
2022-11-12T06:22:09.526Z,31.65
2022-11-12T06:25:16.507Z,33.51
2022-11-12T06:28:23.594Z,29.69
2022-11-12T06:31:31.525Z,30.41
2022-11-12T06:34:38.529Z,30.41
2022-11-12T06:37:46.511Z,30.78
2022-11-12T06:40:53.531Z,30.02
2022-11-12T06:44:01.528Z,34.26
2022-11-12T06:47:08.535Z,32.16
2022-11-12T06:50:08.803Z,31.30
2022-11-12T06:53:15.530Z,31.81
2022-11-12T06:56:22.581Z,31.86
2022-11-12T06:59:23.713Z,34.04
2022-11-12T07:02:31.531Z,30.41
2022-11-12T07:05:38.547Z,31.47
2022-11-12T07:08:46.588Z,30.32
2022-11-12T07:11:59.396Z,30.05
2022-11-12T07:15:06.507Z,31.49
2022-11-12T07:18:13.574Z,30.80
2022-11-12T07:21:17.690Z,30.88
2022-11-12T07:24:24.530Z,32.26
2022-11-12T07:27:24.895Z,29.60
2022-11-12T07:30:32.543Z,34.18
2022-11-12T07:33:34.063Z,31.74
2022-11-12T07:36:41.509Z,31.50
2022-11-12T07:39:49.444Z,28.97
2022-11-12T07:42:56.520Z,28.99
2022-11-12T07:46:01.934Z,29.87
2022-11-12T07:49:10.586Z,30.08
2022-11-12T07:52:10.791Z,32.04
2022-11-12T07:55:18.493Z,30.27
2022-11-12T07:58:25.921Z,29.17
2022-11-12T08:01:55.526Z,31.21
2022-11-12T08:04:56.804Z,28.97
2022-11-12T08:08:04.552Z,30.30
2022-11-12T08:11:18.376Z,30.29
2022-11-12T08:14:25.447Z,31.34
2022-11-12T08:17:26.805Z,30.13
2022-11-12T08:20:34.519Z,29.42
2022-11-12T08:23:36.348Z,28.95
2022-11-12T08:26:44.505Z,29.53
2022-11-12T08:29:44.810Z,29.62
2022-11-12T08:32:51.425Z,32.39
2022-11-12T08:35:58.536Z,30.66
2022-11-12T08:38:59.690Z,31.23
2022-11-12T08:42:06.532Z,30.25
2022-11-12T08:45:13.527Z,30.25
2022-11-12T08:48:19.988Z,30.44
2022-11-12T08:51:27.429Z,29.78
2022-11-12T08:54:27.859Z,31.42
2022-11-12T08:57:34.599Z,30.36
2022-11-12T09:00:45.800Z,29.68
2022-11-12T09:03:52.522Z,30.05
2022-11-12T09:06:54.122Z,29.21
2022-11-12T09:10:01.513Z,30.11
2022-11-12T09:13:15.390Z,29.73
2022-11-12T09:16:22.442Z,32.14
2022-11-12T09:19:24.910Z,31.05
2022-11-12T09:22:31.593Z,30.70
2022-11-12T09:25:32.971Z,30.63
2022-11-12T09:28:41.523Z,30.71
2022-11-12T09:31:41.863Z,30.29
2022-11-12T09:34:48.539Z,30.02
2022-11-12T09:37:55.507Z,34.36
2022-11-12T09:41:12.329Z,32.46
2022-11-12T09:44:36.677Z,32.03
2022-11-12T09:47:44.671Z,33.29
2022-11-12T09:51:06.515Z,34.21
2022-11-12T09:54:27.076Z,32.48
2022-11-12T09:57:34.573Z,33.01
2022-11-12T10:00:35.428Z,31.62
2022-11-12T10:03:54.420Z,33.42
2022-11-12T10:07:01.716Z,31.42
2022-11-12T10:10:28.439Z,33.53
2022-11-12T10:14:08.534Z,32.31
2022-11-12T10:17:57.496Z,34.84
2022-11-12T10:21:23.519Z,34.12
2022-11-12T10:24:31.431Z,34.71
2022-11-12T10:27:47.520Z,33.90
2022-11-12T10:30:48.519Z,35.59
2022-11-12T10:33:56.597Z,34.17
2022-11-12T10:37:06.373Z,35.52
2022-11-12T10:40:13.588Z,33.81
2022-11-12T10:43:38.353Z,34.89
2022-11-12T10:46:46.417Z,34.28
2022-11-12T10:49:46.779Z,36.09
2022-11-12T10:53:14.528Z,35.08
2022-11-12T10:56:45.416Z,35.08
2022-11-12T10:59:53.529Z,33.44
2022-11-12T11:03:02.421Z,35.27
2022-11-12T11:06:09.003Z,36.87
2022-11-12T11:09:29.596Z,38.58
2022-11-12T11:12:29.660Z,38.24
2022-11-12T11:15:38.511Z,40.86
2022-11-12T11:18:49.439Z,38.25
2022-11-12T11:22:03.418Z,39.76
2022-11-12T11:25:31.539Z,39.97
2022-11-12T11:29:40.513Z,42.05
2022-11-12T11:32:49.411Z,42.89
2022-11-12T11:35:56.423Z,44.70
2022-11-12T11:39:26.806Z,43.28
2022-11-12T11:43:20.409Z,43.38
2022-11-12T11:46:28.531Z,44.06
2022-11-12T11:50:01.769Z,45.62
2022-11-12T11:53:33.514Z,44.53
2022-11-12T11:56:43.811Z,44.33
2022-11-12T12:00:30.491Z,47.14
2022-11-12T12:03:51.816Z,46.71
2022-11-12T12:07:07.591Z,46.33
2022-11-12T12:10:46.289Z,47.42
2022-11-12T12:14:08.501Z,47.42
2022-11-12T12:17:24.739Z,47.44
2022-11-12T12:20:48.508Z,48.11
2022-11-12T12:23:54.779Z,48.06
2022-11-12T12:27:27.510Z,48.85
2022-11-12T12:30:32.111Z,50.81
2022-11-12T12:34:10.489Z,51.01
2022-11-12T12:37:32.801Z,50.72
2022-11-12T12:40:49.526Z,50.32
2022-11-12T12:43:59.198Z,51.36
2022-11-12T12:47:08.540Z,53.70
2022-11-12T12:50:11.958Z,51.51
2022-11-12T12:53:35.408Z,52.57
2022-11-12T12:56:46.837Z,52.72
2022-11-12T12:59:47.734Z,54.33
2022-11-12T13:02:55.494Z,53.24
2022-11-12T13:06:25.998Z,54.01
2022-11-12T13:09:32.572Z,53.28
2022-11-12T13:13:19.353Z,53.51
2022-11-12T13:16:58.417Z,54.00
2022-11-12T13:20:02.602Z,54.76
2022-11-12T13:23:09.516Z,55.11
2022-11-12T13:26:48.825Z,55.03
2022-11-12T13:29:56.490Z,55.08
2022-11-12T13:32:56.798Z,55.14
2022-11-12T13:36:40.547Z,55.82
2022-11-12T13:39:43.924Z,55.30
2022-11-12T13:42:57.518Z,54.79
2022-11-12T13:46:24.500Z,54.25
2022-11-12T13:49:24.994Z,54.84
2022-11-12T13:52:34.498Z,55.52
2022-11-12T13:55:35.673Z,55.75
2022-11-12T13:58:51.392Z,56.03
2022-11-12T14:01:53.155Z,57.47
2022-11-12T14:05:01.499Z,57.31
2022-11-12T14:08:17.498Z,55.76
2022-11-12T14:11:51.487Z,56.19
2022-11-12T14:15:03.790Z,55.73
2022-11-12T14:18:18.481Z,55.74
2022-11-12T14:21:19.586Z,54.92
2022-11-12T14:24:27.471Z,56.43
2022-11-12T14:27:38.462Z,56.53
2022-11-12T14:30:45.472Z,57.04
2022-11-12T14:33:53.421Z,56.76
2022-11-12T14:37:03.414Z,58.05
2022-11-12T14:40:11.567Z,58.45
2022-11-12T14:43:18.019Z,58.09
2022-11-12T14:46:54.425Z,58.75
2022-11-12T14:49:57.818Z,58.77
2022-11-12T14:53:14.401Z,58.25
2022-11-12T14:56:20.770Z,57.66
2022-11-12T14:59:28.472Z,58.39
2022-11-12T15:02:55.669Z,58.84
2022-11-12T15:06:05.387Z,59.36
2022-11-12T15:09:09.464Z,59.51
2022-11-12T15:12:19.407Z,58.83
2022-11-12T15:15:28.746Z,59.12
2022-11-12T15:18:38.404Z,59.07
2022-11-12T15:21:46.497Z,59.37
2022-11-12T15:24:49.621Z,59.02
2022-11-12T15:27:58.554Z,59.14
2022-11-12T15:31:07.970Z,59.53
2022-11-12T15:34:35.498Z,59.65
2022-11-12T15:37:43.919Z,60.13
2022-11-12T15:40:57.844Z,60.53
2022-11-12T15:43:58.462Z,61.21
2022-11-12T15:47:07.450Z,61.02
2022-11-12T15:50:17.829Z,60.12
2022-11-12T15:53:24.579Z,60.25
2022-11-12T15:56:25.896Z,59.87
2022-11-12T15:59:33.420Z,59.33
2022-11-12T16:02:34.578Z,60.15
2022-11-12T16:05:41.410Z,60.24
2022-11-12T16:08:49.476Z,59.90
2022-11-12T16:11:57.422Z,60.87
2022-11-12T16:15:10.376Z,60.76
2022-11-12T16:18:13.936Z,61.36
2022-11-12T16:21:21.083Z,62.32
2022-11-12T16:24:22.711Z,62.39
2022-11-12T16:27:30.484Z,62.18
2022-11-12T16:30:33.656Z,61.70
2022-11-12T16:33:40.478Z,61.91
2022-11-12T16:36:41.924Z,60.90
2022-11-12T16:39:49.557Z,61.67
2022-11-12T16:42:51.058Z,62.35
2022-11-12T16:45:59.414Z,62.43
2022-11-12T16:48:59.707Z,62.71
2022-11-12T16:52:06.475Z,62.67
2022-11-12T16:55:08.374Z,63.07
2022-11-12T16:58:15.486Z,63.15
2022-11-12T17:01:30.476Z,63.32
2022-11-12T17:04:40.495Z,63.49
2022-11-12T17:07:47.470Z,62.80
2022-11-12T17:10:54.488Z,63.25
2022-11-12T17:14:01.486Z,62.93
2022-11-12T17:17:01.768Z,63.24
2022-11-12T17:20:09.376Z,63.36
2022-11-12T17:23:16.376Z,63.75
2022-11-12T17:26:26.501Z,64.39
2022-11-12T17:29:33.472Z,64.57
2022-11-12T17:32:34.262Z,65.10
2022-11-12T17:35:42.488Z,65.59
2022-11-12T17:38:44.339Z,65.11
2022-11-12T17:41:51.461Z,64.81
2022-11-12T17:44:52.695Z,64.59
2022-11-12T17:47:59.451Z,64.63
2022-11-12T17:51:27.482Z,64.81
2022-11-12T17:54:28.762Z,65.15
2022-11-12T17:57:35.455Z,64.93
2022-11-12T18:00:36.728Z,65.70
2022-11-12T18:03:47.482Z,65.90
2022-11-12T18:06:47.819Z,65.30
2022-11-12T18:09:54.409Z,65.47
2022-11-12T18:13:01.550Z,66.12
2022-11-12T18:16:13.508Z,66.35
2022-11-12T18:19:23.467Z,66.28
2022-11-12T18:22:23.711Z,65.64
2022-11-12T18:25:31.750Z,65.27
2022-11-12T18:28:38.472Z,65.38
2022-11-12T18:31:41.490Z,65.49
2022-11-12T18:34:52.522Z,66.00
2022-11-12T18:37:53.888Z,65.94
2022-11-12T18:41:09.475Z,66.54
2022-11-12T18:44:19.879Z,65.92
2022-11-12T18:47:21.934Z,65.80
2022-11-12T18:50:29.465Z,66.28
2022-11-12T18:53:31.078Z,65.33
2022-11-12T18:56:37.464Z,65.39
2022-11-12T18:59:44.706Z,65.23
2022-11-12T19:02:52.505Z,65.03
2022-11-12T19:06:06.452Z,65.60
2022-11-12T19:09:12.829Z,65.27
2022-11-12T19:12:20.455Z,65.45
2022-11-12T19:15:27.909Z,65.61
2022-11-12T19:18:28.678Z,65.32
2022-11-12T19:21:29.942Z,65.51
2022-11-12T19:24:36.460Z,65.77
2022-11-12T19:27:37.858Z,65.62
2022-11-12T19:30:44.360Z,66.11
2022-11-12T19:33:53.380Z,65.85
2022-11-12T19:37:31.584Z,66.46
2022-11-12T19:40:21.024Z,66.33
2022-11-12T19:43:29.373Z,66.97
2022-11-12T19:46:32.791Z,66.42
2022-11-12T19:49:40.369Z,66.48
2022-11-12T19:52:41.642Z,66.48
2022-11-12T19:55:49.361Z,66.44
2022-11-12T19:58:51.156Z,66.41
2022-11-12T20:01:59.360Z,67.09
2022-11-12T20:05:06.489Z,66.73
2022-11-12T20:08:06.891Z,66.57
2022-11-12T20:11:13.421Z,66.92
2022-11-12T20:14:21.364Z,67.52
2022-11-12T20:17:28.447Z,67.59
2022-11-12T20:20:35.352Z,68.01
2022-11-12T20:23:43.451Z,68.03
2022-11-12T20:26:44.734Z,68.45
2022-11-12T20:29:51.374Z,68.72
2022-11-12T20:32:58.752Z,68.73
2022-11-12T20:36:08.136Z,68.47
2022-11-12T20:39:15.448Z,68.58
2022-11-12T20:42:22.446Z,68.50
2022-11-12T20:45:22.732Z,69.14
2022-11-12T20:48:30.546Z,69.06
2022-11-12T20:51:34.009Z,69.16
2022-11-12T20:54:40.432Z,69.38
2022-11-12T20:57:41.777Z,68.87
2022-11-12T21:00:49.447Z,69.00
2022-11-12T21:03:58.442Z,69.45
2022-11-12T21:07:04.863Z,69.00
2022-11-12T21:10:12.346Z,66.93
2022-11-12T21:13:12.612Z,68.67
2022-11-12T21:16:21.432Z,69.21
2022-11-12T21:19:21.704Z,68.85
2022-11-12T21:22:29.411Z,68.60
2022-11-12T21:25:29.630Z,69.20
2022-11-12T21:28:37.476Z,69.10
2022-11-12T21:31:37.667Z,69.02
2022-11-12T21:34:44.445Z,69.34
2022-11-12T21:37:44.638Z,69.23
2022-11-12T21:40:51.342Z,69.61
2022-11-12T21:43:52.264Z,69.38
2022-11-12T21:46:59.340Z,69.63
2022-11-12T21:49:59.632Z,69.48
2022-11-12T21:53:06.434Z,69.35
2022-11-12T21:56:13.961Z,68.63
2022-11-12T21:59:21.343Z,69.65
2022-11-12T22:02:21.629Z,69.06
2022-11-12T22:05:29.352Z,68.91
2022-11-12T22:08:30.822Z,69.00
2022-11-12T22:11:38.357Z,68.45
2022-11-12T22:14:52.430Z,68.82
2022-11-12T22:17:53.589Z,69.36
2022-11-12T22:21:11.430Z,69.62
2022-11-12T22:24:12.903Z,69.70
2022-11-12T22:27:19.446Z,70.05
2022-11-12T22:30:19.626Z,69.31
2022-11-12T22:33:26.323Z,69.40
2022-11-12T22:36:29.646Z,69.68
2022-11-12T22:39:37.340Z,69.71
2022-11-12T22:42:45.424Z,70.40
2022-11-12T22:45:52.329Z,69.98
2022-11-12T22:49:01.358Z,71.52
2022-11-12T22:52:01.774Z,70.37
2022-11-12T22:55:08.353Z,71.42
2022-11-12T22:58:08.750Z,70.90
2022-11-12T23:01:18.445Z,70.59
2022-11-12T23:04:18.723Z,70.41
2022-11-12T23:07:26.415Z,70.56
2022-11-12T23:10:26.681Z,70.27
2022-11-12T23:13:35.333Z,70.24
2022-11-12T23:16:45.446Z,70.35
2022-11-12T23:19:52.415Z,70.45
2022-11-12T23:22:53.067Z,69.84
2022-11-12T23:26:00.340Z,70.12
2022-11-12T23:29:08.411Z,69.59
2022-11-12T23:32:08.601Z,69.80
2022-11-12T23:35:15.417Z,70.22
2022-11-12T23:38:15.621Z,70.20
2022-11-12T23:41:24.448Z,70.06
2022-11-12T23:44:25.627Z,70.61
2022-11-12T23:47:32.433Z,70.49
2022-11-12T23:50:32.608Z,70.02
2022-11-12T23:53:39.343Z,70.34
2022-11-12T23:56:46.338Z,69.97
2022-11-12T23:59:46.714Z,70.36
